sensor_id;sensor_type;location;lat;lon;timestamp;P1;durP1;ratioP1;P2;durP2;ratioP2
78555;SDS011;67851;51.354;7.744;2023-09-18T00:00:23;12.73;;;5.30;;
78555;SDS011;67851;51.354;7.744;2023-09-18T00:02:48;9.88;;;5.07;;
78555;SDS011;67851;51.354;7.744;2023-09-18T00:05:14;9.88;;;4.70;;
78555;SDS011;67851;51.354;7.744;2023-09-18T00:07:41;12.48;;;5.15;;
78555;SDS011;67851;51.354;7.744;2023-09-18T00:10:09;6.38;;;4.30;;
78555;SDS011;67851;51.354;7.744;2023-09-18T00:12:35;10.95;;;4.72;;
78555;SDS011;67851;51.354;7.744;2023-09-18T00:15:00;9.07;;;4.28;;
78555;SDS011;67851;51.354;7.744;2023-09-18T00:17:26;8.70;;;4.32;;
78555;SDS011;67851;51.354;7.744;2023-09-18T00:19:52;13.15;;;5.10;;
78555;SDS011;67851;51.354;7.744;2023-09-18T00:22:19;11.90;;;4.53;;
78555;SDS011;67851;51.354;7.744;2023-09-18T00:24:44;16.85;;;4.57;;
78555;SDS011;67851;51.354;7.744;2023-09-18T00:27:10;11.73;;;5.40;;
78555;SDS011;67851;51.354;7.744;2023-09-18T00:29:36;11.68;;;4.10;;
78555;SDS011;67851;51.354;7.744;2023-09-18T00:32:02;9.90;;;4.50;;
78555;SDS011;67851;51.354;7.744;2023-09-18T00:34:28;11.10;;;4.40;;
78555;SDS011;67851;51.354;7.744;2023-09-18T00:36:55;9.60;;;4.43;;
78555;SDS011;67851;51.354;7.744;2023-09-18T00:39:20;12.65;;;4.82;;
78555;SDS011;67851;51.354;7.744;2023-09-18T00:41:46;11.70;;;5.20;;
78555;SDS011;67851;51.354;7.744;2023-09-18T00:44:14;14.57;;;5.78;;
78555;SDS011;67851;51.354;7.744;2023-09-18T00:46:40;10.27;;;4.45;;
78555;SDS011;67851;51.354;7.744;2023-09-18T00:49:05;11.32;;;4.97;;
78555;SDS011;67851;51.354;7.744;2023-09-18T00:51:32;13.27;;;5.40;;
78555;SDS011;67851;51.354;7.744;2023-09-18T00:53:58;15.98;;;5.18;;
78555;SDS011;67851;51.354;7.744;2023-09-18T00:56:24;11.43;;;5.30;;
78555;SDS011;67851;51.354;7.744;2023-09-18T00:58:50;12.13;;;4.72;;
78555;SDS011;67851;51.354;7.744;2023-09-18T01:01:17;10.55;;;5.40;;
78555;SDS011;67851;51.354;7.744;2023-09-18T01:03:48;10.20;;;4.28;;
78555;SDS011;67851;51.354;7.744;2023-09-18T01:06:16;10.40;;;4.72;;
78555;SDS011;67851;51.354;7.744;2023-09-18T01:08:42;14.00;;;5.30;;
78555;SDS011;67851;51.354;7.744;2023-09-18T01:11:16;9.93;;;4.13;;
78555;SDS011;67851;51.354;7.744;2023-09-18T01:13:58;7.07;;;4.38;;
78555;SDS011;67851;51.354;7.744;2023-09-18T01:16:54;9.35;;;3.95;;
78555;SDS011;67851;51.354;7.744;2023-09-18T01:22:07;7.32;;;3.53;;
78555;SDS011;67851;51.354;7.744;2023-09-18T01:24:35;12.10;;;4.50;;
78555;SDS011;67851;51.354;7.744;2023-09-18T01:27:01;14.45;;;4.25;;
78555;SDS011;67851;51.354;7.744;2023-09-18T01:29:31;12.10;;;4.13;;
78555;SDS011;67851;51.354;7.744;2023-09-18T01:31:56;13.35;;;4.72;;
78555;SDS011;67851;51.354;7.744;2023-09-18T01:34:25;10.10;;;4.78;;
78555;SDS011;67851;51.354;7.744;2023-09-18T01:36:57;10.80;;;3.60;;
78555;SDS011;67851;51.354;7.744;2023-09-18T01:39:23;13.30;;;4.05;;
78555;SDS011;67851;51.354;7.744;2023-09-18T01:41:49;12.40;;;4.60;;
78555;SDS011;67851;51.354;7.744;2023-09-18T01:44:15;8.40;;;3.90;;
78555;SDS011;67851;51.354;7.744;2023-09-18T01:46:41;16.45;;;4.47;;
78555;SDS011;67851;51.354;7.744;2023-09-18T01:49:07;9.52;;;5.05;;
78555;SDS011;67851;51.354;7.744;2023-09-18T01:51:33;7.15;;;4.22;;
78555;SDS011;67851;51.354;7.744;2023-09-18T01:54:00;8.38;;;4.13;;
78555;SDS011;67851;51.354;7.744;2023-09-18T01:56:25;16.45;;;4.28;;
78555;SDS011;67851;51.354;7.744;2023-09-18T01:58:51;11.52;;;4.07;;
78555;SDS011;67851;51.354;7.744;2023-09-18T02:01:17;10.00;;;4.78;;
78555;SDS011;67851;51.354;7.744;2023-09-18T02:03:42;9.18;;;4.40;;
78555;SDS011;67851;51.354;7.744;2023-09-18T02:06:08;9.27;;;4.18;;
78555;SDS011;67851;51.354;7.744;2023-09-18T02:08:34;13.85;;;4.75;;
78555;SDS011;67851;51.354;7.744;2023-09-18T02:10:59;8.70;;;4.32;;
78555;SDS011;67851;51.354;7.744;2023-09-18T02:13:25;9.40;;;4.40;;
78555;SDS011;67851;51.354;7.744;2023-09-18T02:15:50;9.27;;;4.30;;
78555;SDS011;67851;51.354;7.744;2023-09-18T02:18:16;9.10;;;4.22;;
78555;SDS011;67851;51.354;7.744;2023-09-18T02:20:41;6.72;;;4.50;;
78555;SDS011;67851;51.354;7.744;2023-09-18T02:23:09;12.48;;;4.38;;
78555;SDS011;67851;51.354;7.744;2023-09-18T02:25:34;7.90;;;4.20;;
78555;SDS011;67851;51.354;7.744;2023-09-18T02:28:00;14.63;;;4.75;;
78555;SDS011;67851;51.354;7.744;2023-09-18T02:30:25;9.98;;;4.70;;
78555;SDS011;67851;51.354;7.744;2023-09-18T02:32:52;6.38;;;4.30;;
78555;SDS011;67851;51.354;7.744;2023-09-18T02:35:18;12.80;;;4.32;;
78555;SDS011;67851;51.354;7.744;2023-09-18T02:37:43;9.10;;;4.00;;
78555;SDS011;67851;51.354;7.744;2023-09-18T02:40:09;10.00;;;4.47;;
78555;SDS011;67851;51.354;7.744;2023-09-18T02:42:35;8.55;;;3.80;;
78555;SDS011;67851;51.354;7.744;2023-09-18T02:45:01;11.25;;;4.70;;
78555;SDS011;67851;51.354;7.744;2023-09-18T02:47:27;10.48;;;3.47;;
78555;SDS011;67851;51.354;7.744;2023-09-18T02:49:53;8.43;;;4.07;;
78555;SDS011;67851;51.354;7.744;2023-09-18T02:52:20;8.77;;;3.78;;
78555;SDS011;67851;51.354;7.744;2023-09-18T02:54:46;10.32;;;3.50;;
78555;SDS011;67851;51.354;7.744;2023-09-18T02:57:12;11.70;;;3.38;;
78555;SDS011;67851;51.354;7.744;2023-09-18T02:59:39;5.88;;;3.20;;
78555;SDS011;67851;51.354;7.744;2023-09-18T03:02:05;5.65;;;3.35;;
78555;SDS011;67851;51.354;7.744;2023-09-18T03:04:32;7.30;;;2.90;;
78555;SDS011;67851;51.354;7.744;2023-09-18T03:07:00;11.15;;;3.47;;
78555;SDS011;67851;51.354;7.744;2023-09-18T03:09:25;5.47;;;2.58;;
78555;SDS011;67851;51.354;7.744;2023-09-18T03:11:51;6.57;;;3.13;;
78555;SDS011;67851;51.354;7.744;2023-09-18T03:14:16;7.93;;;3.10;;
78555;SDS011;67851;51.354;7.744;2023-09-18T03:16:42;10.52;;;3.70;;
78555;SDS011;67851;51.354;7.744;2023-09-18T03:19:08;9.82;;;3.53;;
78555;SDS011;67851;51.354;7.744;2023-09-18T03:21:34;14.60;;;3.88;;
78555;SDS011;67851;51.354;7.744;2023-09-18T03:24:00;10.70;;;3.30;;
78555;SDS011;67851;51.354;7.744;2023-09-18T03:26:26;9.13;;;3.40;;
78555;SDS011;67851;51.354;7.744;2023-09-18T03:28:52;8.15;;;3.15;;
78555;SDS011;67851;51.354;7.744;2023-09-18T03:31:18;14.10;;;4.32;;
78555;SDS011;67851;51.354;7.744;2023-09-18T03:33:44;8.63;;;3.47;;
78555;SDS011;67851;51.354;7.744;2023-09-18T03:36:10;10.57;;;3.65;;
78555;SDS011;67851;51.354;7.744;2023-09-18T03:38:37;7.72;;;2.97;;
78555;SDS011;67851;51.354;7.744;2023-09-18T03:41:02;8.18;;;3.10;;
78555;SDS011;67851;51.354;7.744;2023-09-18T03:43:28;10.45;;;3.47;;
78555;SDS011;67851;51.354;7.744;2023-09-18T03:45:53;11.23;;;3.40;;
78555;SDS011;67851;51.354;7.744;2023-09-18T03:48:20;11.30;;;3.30;;
78555;SDS011;67851;51.354;7.744;2023-09-18T03:50:48;16.38;;;3.90;;
78555;SDS011;67851;51.354;7.744;2023-09-18T03:53:13;8.20;;;3.35;;
78555;SDS011;67851;51.354;7.744;2023-09-18T03:55:39;8.90;;;2.97;;
78555;SDS011;67851;51.354;7.744;2023-09-18T03:58:04;11.35;;;3.65;;
78555;SDS011;67851;51.354;7.744;2023-09-18T04:00:32;10.38;;;3.65;;
78555;SDS011;67851;51.354;7.744;2023-09-18T04:02:57;13.48;;;3.47;;
78555;SDS011;67851;51.354;7.744;2023-09-18T04:05:23;15.15;;;3.30;;
78555;SDS011;67851;51.354;7.744;2023-09-18T04:07:49;8.02;;;3.13;;
78555;SDS011;67851;51.354;7.744;2023-09-18T04:10:14;7.65;;;2.75;;
78555;SDS011;67851;51.354;7.744;2023-09-18T04:12:44;8.07;;;2.85;;
78555;SDS011;67851;51.354;7.744;2023-09-18T04:15:12;10.95;;;2.78;;
78555;SDS011;67851;51.354;7.744;2023-09-18T04:17:39;12.88;;;3.97;;
78555;SDS011;67851;51.354;7.744;2023-09-18T04:20:04;18.25;;;3.95;;
78555;SDS011;67851;51.354;7.744;2023-09-18T04:22:31;10.68;;;3.65;;
78555;SDS011;67851;51.354;7.744;2023-09-18T04:24:56;8.80;;;3.38;;
78555;SDS011;67851;51.354;7.744;2023-09-18T04:27:22;13.73;;;3.45;;
78555;SDS011;67851;51.354;7.744;2023-09-18T04:29:47;12.55;;;3.67;;
78555;SDS011;67851;51.354;7.744;2023-09-18T04:32:13;10.25;;;3.40;;
78555;SDS011;67851;51.354;7.744;2023-09-18T04:34:38;11.70;;;3.47;;
78555;SDS011;67851;51.354;7.744;2023-09-18T04:37:04;13.13;;;3.28;;
78555;SDS011;67851;51.354;7.744;2023-09-18T04:39:29;8.85;;;3.63;;
78555;SDS011;67851;51.354;7.744;2023-09-18T04:41:55;11.73;;;3.22;;
78555;SDS011;67851;51.354;7.744;2023-09-18T04:44:21;11.50;;;3.03;;
78555;SDS011;67851;51.354;7.744;2023-09-18T04:46:47;10.00;;;2.92;;
78555;SDS011;67851;51.354;7.744;2023-09-18T04:49:14;15.98;;;3.30;;
78555;SDS011;67851;51.354;7.744;2023-09-18T04:51:39;11.35;;;3.45;;
78555;SDS011;67851;51.354;7.744;2023-09-18T04:54:07;18.42;;;3.80;;
78555;SDS011;67851;51.354;7.744;2023-09-18T04:56:32;9.98;;;3.00;;
78555;SDS011;67851;51.354;7.744;2023-09-18T04:59:00;9.45;;;3.05;;
78555;SDS011;67851;51.354;7.744;2023-09-18T05:01:28;12.98;;;3.13;;
78555;SDS011;67851;51.354;7.744;2023-09-18T05:03:55;15.80;;;3.80;;
78555;SDS011;67851;51.354;7.744;2023-09-18T05:06:21;15.65;;;3.58;;
78555;SDS011;67851;51.354;7.744;2023-09-18T05:08:46;12.02;;;2.70;;
78555;SDS011;67851;51.354;7.744;2023-09-18T05:11:12;13.20;;;3.35;;
78555;SDS011;67851;51.354;7.744;2023-09-18T05:13:38;12.27;;;3.08;;
78555;SDS011;67851;51.354;7.744;2023-09-18T05:16:04;15.18;;;3.38;;
78555;SDS011;67851;51.354;7.744;2023-09-18T05:18:29;14.88;;;3.55;;
78555;SDS011;67851;51.354;7.744;2023-09-18T05:20:56;8.93;;;2.65;;
78555;SDS011;67851;51.354;7.744;2023-09-18T05:23:23;12.73;;;3.55;;
78555;SDS011;67851;51.354;7.744;2023-09-18T05:25:48;15.10;;;3.42;;
78555;SDS011;67851;51.354;7.744;2023-09-18T05:28:14;12.32;;;3.05;;
78555;SDS011;67851;51.354;7.744;2023-09-18T05:30:41;7.78;;;3.03;;
78555;SDS011;67851;51.354;7.744;2023-09-18T05:33:07;13.07;;;4.05;;
78555;SDS011;67851;51.354;7.744;2023-09-18T05:37:59;13.02;;;2.97;;
78555;SDS011;67851;51.354;7.744;2023-09-18T05:40:25;15.15;;;3.03;;
78555;SDS011;67851;51.354;7.744;2023-09-18T05:42:54;13.30;;;2.90;;
78555;SDS011;67851;51.354;7.744;2023-09-18T05:45:20;13.20;;;2.80;;
78555;SDS011;67851;51.354;7.744;2023-09-18T05:47:45;16.00;;;3.45;;
78555;SDS011;67851;51.354;7.744;2023-09-18T05:50:12;9.00;;;2.10;;
78555;SDS011;67851;51.354;7.744;2023-09-18T05:52:41;8.43;;;2.83;;
78555;SDS011;67851;51.354;7.744;2023-09-18T05:55:08;13.23;;;2.58;;
78555;SDS011;67851;51.354;7.744;2023-09-18T05:57:33;13.68;;;2.88;;
78555;SDS011;67851;51.354;7.744;2023-09-18T05:59:59;11.10;;;2.88;;
78555;SDS011;67851;51.354;7.744;2023-09-18T06:02:25;9.70;;;2.63;;
78555;SDS011;67851;51.354;7.744;2023-09-18T06:04:54;8.60;;;2.80;;
78555;SDS011;67851;51.354;7.744;2023-09-18T06:07:41;11.55;;;3.08;;
78555;SDS011;67851;51.354;7.744;2023-09-18T06:10:06;13.57;;;2.55;;
78555;SDS011;67851;51.354;7.744;2023-09-18T06:12:32;14.88;;;3.67;;
78555;SDS011;67851;51.354;7.744;2023-09-18T06:14:59;10.85;;;2.33;;
78555;SDS011;67851;51.354;7.744;2023-09-18T06:17:24;9.27;;;2.58;;
78555;SDS011;67851;51.354;7.744;2023-09-18T06:19:50;8.88;;;2.60;;
78555;SDS011;67851;51.354;7.744;2023-09-18T06:22:17;10.90;;;2.22;;
78555;SDS011;67851;51.354;7.744;2023-09-18T06:24:42;8.73;;;2.70;;
78555;SDS011;67851;51.354;7.744;2023-09-18T06:27:08;9.32;;;2.33;;
78555;SDS011;67851;51.354;7.744;2023-09-18T06:29:36;9.45;;;2.30;;
78555;SDS011;67851;51.354;7.744;2023-09-18T06:32:03;11.13;;;2.78;;
78555;SDS011;67851;51.354;7.744;2023-09-18T06:34:29;7.70;;;1.95;;
78555;SDS011;67851;51.354;7.744;2023-09-18T06:36:55;11.77;;;2.67;;
78555;SDS011;67851;51.354;7.744;2023-09-18T06:39:21;9.63;;;2.95;;
78555;SDS011;67851;51.354;7.744;2023-09-18T06:41:48;12.18;;;2.50;;
78555;SDS011;67851;51.354;7.744;2023-09-18T06:44:14;9.68;;;2.30;;
78555;SDS011;67851;51.354;7.744;2023-09-18T06:46:39;6.57;;;2.33;;
78555;SDS011;67851;51.354;7.744;2023-09-18T06:49:06;13.20;;;2.83;;
78555;SDS011;67851;51.354;7.744;2023-09-18T06:51:32;11.20;;;2.60;;
78555;SDS011;67851;51.354;7.744;2023-09-18T06:53:57;8.10;;;2.42;;
78555;SDS011;67851;51.354;7.744;2023-09-18T06:56:23;11.45;;;2.58;;
78555;SDS011;67851;51.354;7.744;2023-09-18T06:58:52;9.50;;;2.42;;
78555;SDS011;67851;51.354;7.744;2023-09-18T07:01:20;11.52;;;3.05;;
78555;SDS011;67851;51.354;7.744;2023-09-18T07:03:48;9.30;;;2.10;;
78555;SDS011;67851;51.354;7.744;2023-09-18T07:06:15;7.65;;;2.28;;
78555;SDS011;67851;51.354;7.744;2023-09-18T07:08:47;5.63;;;2.10;;
78555;SDS011;67851;51.354;7.744;2023-09-18T07:11:14;9.52;;;2.38;;
78555;SDS011;67851;51.354;7.744;2023-09-18T07:13:40;15.07;;;2.40;;
78555;SDS011;67851;51.354;7.744;2023-09-18T07:16:07;8.80;;;2.40;;
78555;SDS011;67851;51.354;7.744;2023-09-18T07:18:32;11.60;;;2.30;;
78555;SDS011;67851;51.354;7.744;2023-09-18T07:20:59;10.95;;;2.45;;
78555;SDS011;67851;51.354;7.744;2023-09-18T07:23:24;8.15;;;2.58;;
78555;SDS011;67851;51.354;7.744;2023-09-18T07:25:50;12.70;;;2.33;;
78555;SDS011;67851;51.354;7.744;2023-09-18T07:28:16;14.35;;;2.75;;
78555;SDS011;67851;51.354;7.744;2023-09-18T07:30:44;12.32;;;1.90;;
78555;SDS011;67851;51.354;7.744;2023-09-18T07:33:10;6.43;;;2.20;;
78555;SDS011;67851;51.354;7.744;2023-09-18T07:35:35;11.77;;;2.25;;
78555;SDS011;67851;51.354;7.744;2023-09-18T07:38:01;10.88;;;2.28;;
78555;SDS011;67851;51.354;7.744;2023-09-18T07:40:29;9.05;;;2.17;;
78555;SDS011;67851;51.354;7.744;2023-09-18T07:42:55;6.50;;;2.38;;
78555;SDS011;67851;51.354;7.744;2023-09-18T07:45:20;7.68;;;2.40;;
78555;SDS011;67851;51.354;7.744;2023-09-18T07:47:46;8.88;;;1.92;;
78555;SDS011;67851;51.354;7.744;2023-09-18T07:50:12;9.77;;;2.15;;
78555;SDS011;67851;51.354;7.744;2023-09-18T07:52:39;7.35;;;1.83;;
78555;SDS011;67851;51.354;7.744;2023-09-18T07:55:04;9.23;;;2.00;;
78555;SDS011;67851;51.354;7.744;2023-09-18T07:57:30;9.65;;;1.83;;
78555;SDS011;67851;51.354;7.744;2023-09-18T07:59:59;7.63;;;1.88;;
78555;SDS011;67851;51.354;7.744;2023-09-18T08:02:37;7.30;;;1.77;;
78555;SDS011;67851;51.354;7.744;2023-09-18T08:05:03;7.80;;;1.88;;
78555;SDS011;67851;51.354;7.744;2023-09-18T08:07:30;5.45;;;1.38;;
78555;SDS011;67851;51.354;7.744;2023-09-18T08:09:55;4.10;;;1.50;;
78555;SDS011;67851;51.354;7.744;2023-09-18T08:12:21;9.35;;;1.98;;
78555;SDS011;67851;51.354;7.744;2023-09-18T08:14:47;7.68;;;2.38;;
78555;SDS011;67851;51.354;7.744;2023-09-18T08:17:14;6.80;;;1.85;;
78555;SDS011;67851;51.354;7.744;2023-09-18T08:19:39;3.58;;;1.52;;
78555;SDS011;67851;51.354;7.744;2023-09-18T08:22:05;7.55;;;2.03;;
78555;SDS011;67851;51.354;7.744;2023-09-18T08:24:30;8.95;;;2.13;;
78555;SDS011;67851;51.354;7.744;2023-09-18T08:26:56;5.57;;;1.92;;
78555;SDS011;67851;51.354;7.744;2023-09-18T08:29:22;7.40;;;1.80;;
78555;SDS011;67851;51.354;7.744;2023-09-18T08:31:47;6.25;;;2.22;;
78555;SDS011;67851;51.354;7.744;2023-09-18T08:34:13;5.80;;;1.30;;
78555;SDS011;67851;51.354;7.744;2023-09-18T08:36:39;7.85;;;1.77;;
78555;SDS011;67851;51.354;7.744;2023-09-18T08:39:05;7.13;;;1.90;;
78555;SDS011;67851;51.354;7.744;2023-09-18T08:41:35;7.60;;;1.92;;
78555;SDS011;67851;51.354;7.744;2023-09-18T08:44:03;6.40;;;1.70;;
78555;SDS011;67851;51.354;7.744;2023-09-18T08:46:32;9.98;;;1.80;;
78555;SDS011;67851;51.354;7.744;2023-09-18T08:48:59;10.75;;;1.73;;
78555;SDS011;67851;51.354;7.744;2023-09-18T08:51:27;5.30;;;1.45;;
78555;SDS011;67851;51.354;7.744;2023-09-18T08:53:54;6.55;;;1.58;;
78555;SDS011;67851;51.354;7.744;2023-09-18T08:56:20;4.47;;;1.70;;
78555;SDS011;67851;51.354;7.744;2023-09-18T08:58:46;7.63;;;1.75;;
78555;SDS011;67851;51.354;7.744;2023-09-18T09:01:12;8.18;;;1.65;;
78555;SDS011;67851;51.354;7.744;2023-09-18T09:03:38;6.10;;;1.60;;
78555;SDS011;67851;51.354;7.744;2023-09-18T09:06:05;4.97;;;1.70;;
78555;SDS011;67851;51.354;7.744;2023-09-18T09:08:32;6.07;;;1.90;;
78555;SDS011;67851;51.354;7.744;2023-09-18T09:10:58;4.50;;;1.90;;
78555;SDS011;67851;51.354;7.744;2023-09-18T09:13:24;11.68;;;1.90;;
78555;SDS011;67851;51.354;7.744;2023-09-18T09:15:53;5.75;;;1.90;;
78555;SDS011;67851;51.354;7.744;2023-09-18T09:18:21;5.72;;;1.55;;
78555;SDS011;67851;51.354;7.744;2023-09-18T09:21:01;4.57;;;1.70;;
78555;SDS011;67851;51.354;7.744;2023-09-18T09:23:28;4.72;;;1.83;;
78555;SDS011;67851;51.354;7.744;2023-09-18T09:26:14;6.15;;;1.70;;
78555;SDS011;67851;51.354;7.744;2023-09-18T09:28:42;6.45;;;1.42;;
78555;SDS011;67851;51.354;7.744;2023-09-18T09:31:08;8.35;;;1.60;;
78555;SDS011;67851;51.354;7.744;2023-09-18T09:33:35;4.95;;;1.50;;
78555;SDS011;67851;51.354;7.744;2023-09-18T09:36:04;4.93;;;1.17;;
78555;SDS011;67851;51.354;7.744;2023-09-18T09:38:31;7.20;;;1.35;;
78555;SDS011;67851;51.354;7.744;2023-09-18T09:40:58;3.65;;;1.23;;
78555;SDS011;67851;51.354;7.744;2023-09-18T09:43:27;9.65;;;1.85;;
78555;SDS011;67851;51.354;7.744;2023-09-18T09:45:57;6.90;;;1.95;;
78555;SDS011;67851;51.354;7.744;2023-09-18T09:48:24;6.18;;;1.45;;
78555;SDS011;67851;51.354;7.744;2023-09-18T09:50:50;4.28;;;1.00;;
78555;SDS011;67851;51.354;7.744;2023-09-18T09:53:17;2.20;;;1.23;;
78555;SDS011;67851;51.354;7.744;2023-09-18T09:55:43;8.57;;;1.48;;
78555;SDS011;67851;51.354;7.744;2023-09-18T09:58:09;7.20;;;1.20;;
78555;SDS011;67851;51.354;7.744;2023-09-18T10:00:39;3.83;;;1.25;;
78555;SDS011;67851;51.354;7.744;2023-09-18T10:03:11;2.65;;;1.10;;
78555;SDS011;67851;51.354;7.744;2023-09-18T10:05:39;4.88;;;1.15;;
78555;SDS011;67851;51.354;7.744;2023-09-18T10:08:27;3.45;;;1.33;;
78555;SDS011;67851;51.354;7.744;2023-09-18T10:10:52;2.78;;;0.90;;
78555;SDS011;67851;51.354;7.744;2023-09-18T10:13:23;2.72;;;1.00;;
78555;SDS011;67851;51.354;7.744;2023-09-18T10:15:55;6.75;;;1.48;;
78555;SDS011;67851;51.354;7.744;2023-09-18T10:21:28;8.27;;;1.23;;
78555;SDS011;67851;51.354;7.744;2023-09-18T10:26:44;5.28;;;1.33;;
78555;SDS011;67851;51.354;7.744;2023-09-18T10:29:15;3.17;;;1.10;;
78555;SDS011;67851;51.354;7.744;2023-09-18T10:31:43;3.78;;;1.20;;
78555;SDS011;67851;51.354;7.744;2023-09-18T10:34:09;5.47;;;1.20;;
78555;SDS011;67851;51.354;7.744;2023-09-18T10:36:36;3.80;;;1.05;;
78555;SDS011;67851;51.354;7.744;2023-09-18T10:39:03;4.90;;;1.42;;
78555;SDS011;67851;51.354;7.744;2023-09-18T10:41:33;4.73;;;1.20;;
78555;SDS011;67851;51.354;7.744;2023-09-18T10:43:59;2.40;;;1.20;;
78555;SDS011;67851;51.354;7.744;2023-09-18T10:46:26;3.85;;;1.40;;
78555;SDS011;67851;51.354;7.744;2023-09-18T10:48:52;4.60;;;1.20;;
78555;SDS011;67851;51.354;7.744;2023-09-18T10:51:20;4.43;;;1.38;;
78555;SDS011;67851;51.354;7.744;2023-09-18T10:53:47;4.03;;;1.40;;
78555;SDS011;67851;51.354;7.744;2023-09-18T10:56:14;3.40;;;1.02;;
78555;SDS011;67851;51.354;7.744;2023-09-18T10:58:41;3.83;;;1.30;;
78555;SDS011;67851;51.354;7.744;2023-09-18T11:01:07;5.43;;;1.45;;
78555;SDS011;67851;51.354;7.744;2023-09-18T11:03:33;3.50;;;0.98;;
78555;SDS011;67851;51.354;7.744;2023-09-18T11:06:05;6.68;;;1.30;;
78555;SDS011;67851;51.354;7.744;2023-09-18T11:08:32;7.75;;;1.38;;
78555;SDS011;67851;51.354;7.744;2023-09-18T11:16:47;5.00;;;1.23;;
78555;SDS011;67851;51.354;7.744;2023-09-18T11:18:54;4.65;;;1.17;;
78555;SDS011;67851;51.354;7.744;2023-09-18T11:21:32;5.05;;;1.45;;
78555;SDS011;67851;51.354;7.744;2023-09-18T11:24:05;3.33;;;1.50;;
78555;SDS011;67851;51.354;7.744;2023-09-18T11:26:42;6.63;;;1.13;;
78555;SDS011;67851;51.354;7.744;2023-09-18T11:29:09;4.22;;;1.10;;
78555;SDS011;67851;51.354;7.744;2023-09-18T11:31:49;3.05;;;1.00;;
78555;SDS011;67851;51.354;7.744;2023-09-18T11:36:49;3.08;;;1.17;;
78555;SDS011;67851;51.354;7.744;2023-09-18T11:39:37;3.50;;;1.00;;
78555;SDS011;67851;51.354;7.744;2023-09-18T11:42:18;3.30;;;1.42;;
78555;SDS011;67851;51.354;7.744;2023-09-18T11:44:47;2.22;;;1.00;;
78555;SDS011;67851;51.354;7.744;2023-09-18T11:47:17;5.15;;;1.55;;
78555;SDS011;67851;51.354;7.744;2023-09-18T11:49:51;4.32;;;0.93;;
78555;SDS011;67851;51.354;7.744;2023-09-18T11:52:23;4.43;;;1.55;;
78555;SDS011;67851;51.354;7.744;2023-09-18T11:54:51;1.90;;;0.98;;
78555;SDS011;67851;51.354;7.744;2023-09-18T11:57:19;4.18;;;1.00;;
78555;SDS011;67851;51.354;7.744;2023-09-18T11:59:45;3.33;;;1.10;;
78555;SDS011;67851;51.354;7.744;2023-09-18T12:02:13;3.85;;;1.00;;
78555;SDS011;67851;51.354;7.744;2023-09-18T12:04:46;3.28;;;1.15;;
78555;SDS011;67851;51.354;7.744;2023-09-18T12:07:12;5.38;;;1.10;;
78555;SDS011;67851;51.354;7.744;2023-09-18T12:09:38;3.30;;;1.02;;
78555;SDS011;67851;51.354;7.744;2023-09-18T12:12:05;3.55;;;1.00;;
78555;SDS011;67851;51.354;7.744;2023-09-18T12:14:32;4.85;;;1.35;;
78555;SDS011;67851;51.354;7.744;2023-09-18T12:17:01;3.90;;;1.27;;
78555;SDS011;67851;51.354;7.744;2023-09-18T12:19:30;3.72;;;1.10;;
78555;SDS011;67851;51.354;7.744;2023-09-18T12:21:56;2.85;;;1.20;;
78555;SDS011;67851;51.354;7.744;2023-09-18T12:24:24;4.15;;;1.08;;
78555;SDS011;67851;51.354;7.744;2023-09-18T12:26:50;7.30;;;1.17;;
78555;SDS011;67851;51.354;7.744;2023-09-18T12:29:16;4.18;;;0.90;;
78555;SDS011;67851;51.354;7.744;2023-09-18T12:31:42;7.28;;;1.70;;
78555;SDS011;67851;51.354;7.744;2023-09-18T12:34:14;2.13;;;0.77;;
78555;SDS011;67851;51.354;7.744;2023-09-18T12:36:49;2.80;;;1.00;;
78555;SDS011;67851;51.354;7.744;2023-09-18T12:39:15;2.83;;;1.20;;
78555;SDS011;67851;51.354;7.744;2023-09-18T12:41:45;3.03;;;1.02;;
78555;SDS011;67851;51.354;7.744;2023-09-18T12:44:12;2.40;;;1.00;;
78555;SDS011;67851;51.354;7.744;2023-09-18T12:46:39;1.83;;;0.90;;
78555;SDS011;67851;51.354;7.744;2023-09-18T12:49:16;5.85;;;1.05;;
78555;SDS011;67851;51.354;7.744;2023-09-18T12:51:42;2.15;;;1.13;;
78555;SDS011;67851;51.354;7.744;2023-09-18T12:54:09;4.90;;;1.20;;
78555;SDS011;67851;51.354;7.744;2023-09-18T12:56:42;2.85;;;1.10;;
78555;SDS011;67851;51.354;7.744;2023-09-18T12:59:08;4.80;;;1.02;;
78555;SDS011;67851;51.354;7.744;2023-09-18T13:01:34;4.20;;;1.20;;
78555;SDS011;67851;51.354;7.744;2023-09-18T13:04:02;3.97;;;1.17;;
78555;SDS011;67851;51.354;7.744;2023-09-18T13:06:30;3.38;;;1.10;;
78555;SDS011;67851;51.354;7.744;2023-09-18T13:09:01;4.32;;;1.20;;
78555;SDS011;67851;51.354;7.744;2023-09-18T13:11:56;2.35;;;0.80;;
78555;SDS011;67851;51.354;7.744;2023-09-18T13:14:22;3.05;;;0.88;;
78555;SDS011;67851;51.354;7.744;2023-09-18T13:16:48;2.30;;;1.17;;
78555;SDS011;67851;51.354;7.744;2023-09-18T13:19:16;2.80;;;1.10;;
78555;SDS011;67851;51.354;7.744;2023-09-18T13:21:46;4.35;;;1.00;;
78555;SDS011;67851;51.354;7.744;2023-09-18T13:24:28;4.28;;;1.00;;
78555;SDS011;67851;51.354;7.744;2023-09-18T13:26:54;4.97;;;1.00;;
78555;SDS011;67851;51.354;7.744;2023-09-18T13:29:21;3.15;;;0.93;;
78555;SDS011;67851;51.354;7.744;2023-09-18T13:31:46;3.33;;;1.13;;
78555;SDS011;67851;51.354;7.744;2023-09-18T13:34:12;4.00;;;1.30;;
78555;SDS011;67851;51.354;7.744;2023-09-18T13:36:42;2.67;;;1.20;;
78555;SDS011;67851;51.354;7.744;2023-09-18T13:39:08;3.63;;;1.05;;
78555;SDS011;67851;51.354;7.744;2023-09-18T13:41:33;4.22;;;1.10;;
78555;SDS011;67851;51.354;7.744;2023-09-18T13:44:00;4.43;;;1.17;;
78555;SDS011;67851;51.354;7.744;2023-09-18T13:46:25;5.45;;;1.20;;
78555;SDS011;67851;51.354;7.744;2023-09-18T13:48:52;1.92;;;1.20;;
78555;SDS011;67851;51.354;7.744;2023-09-18T13:51:17;2.30;;;1.00;;
78555;SDS011;67851;51.354;7.744;2023-09-18T13:53:43;2.55;;;1.10;;
78555;SDS011;67851;51.354;7.744;2023-09-18T13:56:08;11.95;;;1.15;;
78555;SDS011;67851;51.354;7.744;2023-09-18T13:58:34;2.83;;;1.42;;
78555;SDS011;67851;51.354;7.744;2023-09-18T14:01:02;2.65;;;1.05;;
78555;SDS011;67851;51.354;7.744;2023-09-18T14:03:30;3.65;;;1.10;;
78555;SDS011;67851;51.354;7.744;2023-09-18T14:05:56;5.88;;;1.10;;
78555;SDS011;67851;51.354;7.744;2023-09-18T14:08:22;3.55;;;1.52;;
78555;SDS011;67851;51.354;7.744;2023-09-18T14:10:49;4.97;;;1.35;;
78555;SDS011;67851;51.354;7.744;2023-09-18T14:13:15;3.17;;;1.20;;
78555;SDS011;67851;51.354;7.744;2023-09-18T14:15:42;4.72;;;1.20;;
78555;SDS011;67851;51.354;7.744;2023-09-18T14:18:09;3.75;;;1.10;;
78555;SDS011;67851;51.354;7.744;2023-09-18T14:20:43;2.92;;;1.20;;
78555;SDS011;67851;51.354;7.744;2023-09-18T14:23:10;4.07;;;1.45;;
78555;SDS011;67851;51.354;7.744;2023-09-18T14:25:35;13.30;;;1.50;;
78555;SDS011;67851;51.354;7.744;2023-09-18T14:28:01;4.82;;;1.15;;
78555;SDS011;67851;51.354;7.744;2023-09-18T14:30:28;2.35;;;1.10;;
78555;SDS011;67851;51.354;7.744;2023-09-18T14:32:57;5.97;;;1.63;;
78555;SDS011;67851;51.354;7.744;2023-09-18T14:35:23;5.63;;;1.10;;
78555;SDS011;67851;51.354;7.744;2023-09-18T14:37:48;5.03;;;1.25;;
78555;SDS011;67851;51.354;7.744;2023-09-18T14:40:14;5.60;;;1.65;;
78555;SDS011;67851;51.354;7.744;2023-09-18T14:42:41;2.20;;;1.20;;
78555;SDS011;67851;51.354;7.744;2023-09-18T14:45:06;3.17;;;1.17;;
78555;SDS011;67851;51.354;7.744;2023-09-18T14:47:32;5.63;;;1.13;;
78555;SDS011;67851;51.354;7.744;2023-09-18T14:49:57;4.95;;;1.40;;
78555;SDS011;67851;51.354;7.744;2023-09-18T14:52:23;3.05;;;1.00;;
78555;SDS011;67851;51.354;7.744;2023-09-18T14:54:51;2.85;;;1.05;;
78555;SDS011;67851;51.354;7.744;2023-09-18T14:57:17;3.88;;;1.45;;
78555;SDS011;67851;51.354;7.744;2023-09-18T14:59:42;2.70;;;1.10;;
78555;SDS011;67851;51.354;7.744;2023-09-18T15:02:13;2.50;;;1.15;;